Detall de PIREP

Printer-friendly versionPDF version

[2012/05/18 07:29:00]
Flight IATA:CT2110
Pilot Number:041
Company ICAO:CAT
Aircraft Type:BE58/A
PAX:2
Departing Airport: LEVC
Destination Airport: LEST
Alternate Airport:LECO
Online: VATSIM
Route:CENTA A33 PRADO UN733 FORNO
Flight Level:F130
No Slew and time accel
No pause
Crash detect
Detect pilot in Cockpit between each 30 and 45 minutes
07:29 Zero fuel Weight: 4592 Lbs, Fuel Weight: 850 Lbs
07:29 VATSIM:LEVC 180700Z 07004KT 350V100 9999 FEW015 BKN020 19/15 Q1010 NOSIG
07:29 VATSIM:LEST 180700Z VRB01KT 9999 FEW010 11/10 Q1012 NOSIG
07:30 VOICE CATALONIAN
07:31 Parking Brakes off
07:37 Take-off
07:37 Take off Weight: 5439 Lbs
07:37 Wind: 163º @ 004 Knots Heading: 293º
07:37 POS N39º 29´ 15´´ W000º 28´ 37´´
07:37 Gear Up: 106 Knots
07:37 Flaps:1 at 106 Knots
07:37 Flaps:0 at 115 Knots
07:50 TOC
07:50 Fuel Weight: 800 Lb
07:52 Wind:031º@021 Knots Heading: 305ºGround Speed: 207 Knots Altitude 13389 ft
08:07 Wind:042º@022 Knots Heading: 304º Ground Speed: 210 Knots Altitude 13385 ft
08:22 Wind:037º@016 Knots Heading: 301º Ground Speed: 212 Knots Altitude 13379 ft
08:37 Wind:012º@024 Knots Heading: 302º Ground Speed: 199 Knots Altitude 13412 ft
08:52 Wind:031º@017 Knots Heading: 300º Ground Speed: 209 Knots Altitude 13444 ft
09:07 Wind:004º@017 Knots Heading: 308º Ground Speed: 198 Knots Altitude 13471 ft
09:18 TOD
09:18 Fuel Weight: 470 Lb
09:22 Wind:036º@015 Knots Heading: 307º Ground Speed: 218 Knots Altitude 9229 ft
09:37 Wind:048º@019 Knots Heading: 313º Ground Speed: 202 Knots Altitude 5597 ft
09:49 Flaps:1 at 150 Knots
09:50 Gear Down: 131 Knots
09:52 Wind:086º@007 Knots Heading: 007º Ground Speed: 130 Knots Altitude 3979 ft
09:55 Flaps:2 at 107 Knots
09:57 TouchDown:Rate -115 ft/min Speed: 79 Knots
09:57 Flaps:0 at 69 Knots
09:57 VATSIM:LEST 180930Z VRB02KT 9999 SCT020 14/08 Q1012 NOSIG
09:57 Land
09:57 Wind:101º@006 Knots
09:57 Heading: 348º
09:57 Flight Duration: 02:20
09:57 Landing Weight: 4942 Lbs
09:57 POS N42º 53´ 36´´ W008º 24´ 50´´
10:01 Parking brakes on
10:01 Block to Block Duration: 02:30
10:01 Final Fuel: 348 Lbls
10:01 Spent Fuel: 502 Lbls
10:01 Flight Length: 454 NM
10:01 TOD Land Length: 119 NM

Exportar CSV

Powered by Drupal - Modified by Danger4k